sensor_id;sensor_type;location;lat;lon;timestamp;temperature;humidity
51035;DHT22;37062;52.546;13.230;2023-12-07T00:00:58;5.40;99.90
51035;DHT22;37062;52.546;13.230;2023-12-07T00:03:26;5.40;99.90
51035;DHT22;37062;52.546;13.230;2023-12-07T00:05:55;5.40;99.90
51035;DHT22;37062;52.546;13.230;2023-12-07T00:08:23;5.40;99.90
51035;DHT22;37062;52.546;13.230;2023-12-07T00:10:51;5.40;99.90
51035;DHT22;37062;52.546;13.230;2023-12-07T00:13:20;5.40;99.90
51035;DHT22;37062;52.546;13.230;2023-12-07T00:15:48;5.40;99.90
51035;DHT22;37062;52.546;13.230;2023-12-07T00:18:18;5.40;99.90
51035;DHT22;37062;52.546;13.230;2023-12-07T00:20:46;5.40;99.90
51035;DHT22;37062;52.546;13.230;2023-12-07T00:23:15;5.40;99.90
51035;DHT22;37062;52.546;13.230;2023-12-07T00:25:43;5.40;99.90
51035;DHT22;37062;52.546;13.230;2023-12-07T00:28:12;5.40;99.90
51035;DHT22;37062;52.546;13.230;2023-12-07T00:30:41;5.40;99.90
51035;DHT22;37062;52.546;13.230;2023-12-07T00:33:09;5.40;99.90
51035;DHT22;37062;52.546;13.230;2023-12-07T00:35:39;5.50;99.90
51035;DHT22;37062;52.546;13.230;2023-12-07T00:38:07;5.40;99.90
51035;DHT22;37062;52.546;13.230;2023-12-07T00:40:35;5.40;99.90
51035;DHT22;37062;52.546;13.230;2023-12-07T00:43:06;5.40;99.90
51035;DHT22;37062;52.546;13.230;2023-12-07T00:45:35;5.50;99.90
51035;DHT22;37062;52.546;13.230;2023-12-07T00:48:03;5.50;99.90
51035;DHT22;37062;52.546;13.230;2023-12-07T00:50:32;5.50;99.90
51035;DHT22;37062;52.546;13.230;2023-12-07T00:53:02;5.50;99.90
51035;DHT22;37062;52.546;13.230;2023-12-07T00:55:30;5.50;99.90
51035;DHT22;37062;52.546;13.230;2023-12-07T00:57:59;5.50;99.90
51035;DHT22;37062;52.546;13.230;2023-12-07T01:00:28;5.50;99.90
51035;DHT22;37062;52.546;13.230;2023-12-07T01:02:56;5.50;99.90
51035;DHT22;37062;52.546;13.230;2023-12-07T01:05:24;5.50;99.90
51035;DHT22;37062;52.546;13.230;2023-12-07T01:07:53;5.40;99.90
51035;DHT22;37062;52.546;13.230;2023-12-07T01:10:22;5.50;99.90
51035;DHT22;37062;52.546;13.230;2023-12-07T01:12:51;5.40;99.90
51035;DHT22;37062;52.546;13.230;2023-12-07T01:15:19;5.40;99.90
51035;DHT22;37062;52.546;13.230;2023-12-07T01:17:47;5.40;99.90
51035;DHT22;37062;52.546;13.230;2023-12-07T01:20:16;5.40;99.90
51035;DHT22;37062;52.546;13.230;2023-12-07T01:22:44;5.40;99.90
51035;DHT22;37062;52.546;13.230;2023-12-07T01:25:13;5.40;99.90
51035;DHT22;37062;52.546;13.230;2023-12-07T01:27:48;5.40;99.90
51035;DHT22;37062;52.546;13.230;2023-12-07T01:30:17;5.40;99.90
51035;DHT22;37062;52.546;13.230;2023-12-07T01:32:45;5.50;99.90
51035;DHT22;37062;52.546;13.230;2023-12-07T01:35:13;5.40;99.90
51035;DHT22;37062;52.546;13.230;2023-12-07T01:37:42;5.40;99.90
51035;DHT22;37062;52.546;13.230;2023-12-07T01:40:10;5.40;99.90
51035;DHT22;37062;52.546;13.230;2023-12-07T01:42:39;5.30;99.90
51035;DHT22;37062;52.546;13.230;2023-12-07T01:45:08;5.30;99.90
51035;DHT22;37062;52.546;13.230;2023-12-07T01:47:37;5.30;99.90
51035;DHT22;37062;52.546;13.230;2023-12-07T01:50:06;5.30;99.90
51035;DHT22;37062;52.546;13.230;2023-12-07T01:52:37;5.40;99.90
51035;DHT22;37062;52.546;13.230;2023-12-07T01:55:07;5.40;99.90
51035;DHT22;37062;52.546;13.230;2023-12-07T01:57:37;5.40;99.90
51035;DHT22;37062;52.546;13.230;2023-12-07T02:00:08;5.40;99.90
51035;DHT22;37062;52.546;13.230;2023-12-07T02:02:37;5.40;99.90
51035;DHT22;37062;52.546;13.230;2023-12-07T02:05:06;5.40;99.90
51035;DHT22;37062;52.546;13.230;2023-12-07T02:07:35;5.40;99.90
51035;DHT22;37062;52.546;13.230;2023-12-07T02:10:04;5.40;99.90
51035;DHT22;37062;52.546;13.230;2023-12-07T02:12:33;5.40;99.90
51035;DHT22;37062;52.546;13.230;2023-12-07T02:15:03;5.40;99.90
51035;DHT22;37062;52.546;13.230;2023-12-07T02:17:38;5.40;99.90
51035;DHT22;37062;52.546;13.230;2023-12-07T02:20:12;5.30;99.90
51035;DHT22;37062;52.546;13.230;2023-12-07T02:22:43;5.40;99.90
51035;DHT22;37062;52.546;13.230;2023-12-07T02:25:14;5.40;99.90
51035;DHT22;37062;52.546;13.230;2023-12-07T02:27:46;5.40;99.90
51035;DHT22;37062;52.546;13.230;2023-12-07T02:30:15;5.40;99.90
51035;DHT22;37062;52.546;13.230;2023-12-07T02:32:44;5.50;99.90
51035;DHT22;37062;52.546;13.230;2023-12-07T02:35:13;5.40;99.90
51035;DHT22;37062;52.546;13.230;2023-12-07T02:37:44;5.40;99.90
51035;DHT22;37062;52.546;13.230;2023-12-07T02:40:12;5.40;99.90
51035;DHT22;37062;52.546;13.230;2023-12-07T02:42:43;5.40;99.90
51035;DHT22;37062;52.546;13.230;2023-12-07T02:45:13;5.40;99.90
51035;DHT22;37062;52.546;13.230;2023-12-07T02:47:41;5.40;99.90
51035;DHT22;37062;52.546;13.230;2023-12-07T02:50:13;5.40;99.90
51035;DHT22;37062;52.546;13.230;2023-12-07T02:52:41;5.40;99.90
51035;DHT22;37062;52.546;13.230;2023-12-07T02:55:10;5.40;99.90
51035;DHT22;37062;52.546;13.230;2023-12-07T02:57:39;5.40;99.90
51035;DHT22;37062;52.546;13.230;2023-12-07T03:00:08;5.40;99.90
51035;DHT22;37062;52.546;13.230;2023-12-07T03:02:41;5.40;99.90
51035;DHT22;37062;52.546;13.230;2023-12-07T03:05:09;5.40;99.90
51035;DHT22;37062;52.546;13.230;2023-12-07T03:07:37;5.40;99.90
51035;DHT22;37062;52.546;13.230;2023-12-07T03:10:06;5.40;99.90
51035;DHT22;37062;52.546;13.230;2023-12-07T03:12:35;5.30;99.90
51035;DHT22;37062;52.546;13.230;2023-12-07T03:15:03;5.30;99.90
51035;DHT22;37062;52.546;13.230;2023-12-07T03:17:32;5.30;99.90
51035;DHT22;37062;52.546;13.230;2023-12-07T03:20:03;5.40;99.90
51035;DHT22;37062;52.546;13.230;2023-12-07T03:22:32;5.40;99.90
51035;DHT22;37062;52.546;13.230;2023-12-07T03:25:01;5.30;99.90
51035;DHT22;37062;52.546;13.230;2023-12-07T03:27:30;5.30;99.90
51035;DHT22;37062;52.546;13.230;2023-12-07T03:29:59;5.30;99.90
51035;DHT22;37062;52.546;13.230;2023-12-07T03:32:27;5.30;99.90
51035;DHT22;37062;52.546;13.230;2023-12-07T03:34:55;5.30;99.90
51035;DHT22;37062;52.546;13.230;2023-12-07T03:37:25;5.30;99.90
51035;DHT22;37062;52.546;13.230;2023-12-07T03:39:53;5.30;99.90
51035;DHT22;37062;52.546;13.230;2023-12-07T03:42:21;5.30;99.90
51035;DHT22;37062;52.546;13.230;2023-12-07T03:45:11;5.30;99.90
51035;DHT22;37062;52.546;13.230;2023-12-07T03:47:39;5.30;99.90
51035;DHT22;37062;52.546;13.230;2023-12-07T03:50:08;5.40;99.90
51035;DHT22;37062;52.546;13.230;2023-12-07T03:52:38;5.40;99.90
51035;DHT22;37062;52.546;13.230;2023-12-07T03:55:07;5.40;99.90
51035;DHT22;37062;52.546;13.230;2023-12-07T03:57:35;5.40;99.90
51035;DHT22;37062;52.546;13.230;2023-12-07T04:00:04;5.40;99.90
51035;DHT22;37062;52.546;13.230;2023-12-07T04:02:34;5.40;99.90
51035;DHT22;37062;52.546;13.230;2023-12-07T04:05:03;5.50;99.90
51035;DHT22;37062;52.546;13.230;2023-12-07T04:07:31;5.40;99.90
51035;DHT22;37062;52.546;13.230;2023-12-07T04:10:01;5.40;99.90
51035;DHT22;37062;52.546;13.230;2023-12-07T04:12:32;5.40;99.90
51035;DHT22;37062;52.546;13.230;2023-12-07T04:15:00;5.40;99.90
51035;DHT22;37062;52.546;13.230;2023-12-07T04:17:29;5.40;99.90
51035;DHT22;37062;52.546;13.230;2023-12-07T04:19:57;5.50;99.90
51035;DHT22;37062;52.546;13.230;2023-12-07T04:22:25;5.50;99.90
51035;DHT22;37062;52.546;13.230;2023-12-07T04:24:54;5.50;99.90
51035;DHT22;37062;52.546;13.230;2023-12-07T04:27:24;5.50;99.90
51035;DHT22;37062;52.546;13.230;2023-12-07T04:29:52;5.40;99.90
51035;DHT22;37062;52.546;13.230;2023-12-07T04:32:20;5.40;99.90
51035;DHT22;37062;52.546;13.230;2023-12-07T04:34:49;5.40;99.90
51035;DHT22;37062;52.546;13.230;2023-12-07T04:37:17;5.40;99.90
51035;DHT22;37062;52.546;13.230;2023-12-07T04:39:45;5.40;99.90
51035;DHT22;37062;52.546;13.230;2023-12-07T04:42:13;5.40;99.90
51035;DHT22;37062;52.546;13.230;2023-12-07T04:44:43;5.40;99.90
51035;DHT22;37062;52.546;13.230;2023-12-07T04:47:11;5.40;99.90
51035;DHT22;37062;52.546;13.230;2023-12-07T04:49:39;5.40;99.90
51035;DHT22;37062;52.546;13.230;2023-12-07T04:52:08;5.40;99.90
51035;DHT22;37062;52.546;13.230;2023-12-07T04:54:36;5.40;99.90
51035;DHT22;37062;52.546;13.230;2023-12-07T04:57:05;5.40;99.90
51035;DHT22;37062;52.546;13.230;2023-12-07T04:59:34;5.40;99.90
51035;DHT22;37062;52.546;13.230;2023-12-07T05:02:06;5.40;99.90
51035;DHT22;37062;52.546;13.230;2023-12-07T05:04:35;5.40;99.90
51035;DHT22;37062;52.546;13.230;2023-12-07T05:07:03;5.40;99.90
51035;DHT22;37062;52.546;13.230;2023-12-07T05:09:31;5.50;99.90
51035;DHT22;37062;52.546;13.230;2023-12-07T05:12:00;5.50;99.90
51035;DHT22;37062;52.546;13.230;2023-12-07T05:14:28;5.50;99.90
51035;DHT22;37062;52.546;13.230;2023-12-07T05:16:58;5.50;99.90
51035;DHT22;37062;52.546;13.230;2023-12-07T05:19:28;5.50;99.90
51035;DHT22;37062;52.546;13.230;2023-12-07T05:21:56;5.50;99.90
51035;DHT22;37062;52.546;13.230;2023-12-07T05:24:24;5.50;99.90
51035;DHT22;37062;52.546;13.230;2023-12-07T05:26:52;5.50;99.90
51035;DHT22;37062;52.546;13.230;2023-12-07T05:29:20;5.50;99.90
51035;DHT22;37062;52.546;13.230;2023-12-07T05:31:49;5.50;99.90
51035;DHT22;37062;52.546;13.230;2023-12-07T05:34:18;5.50;99.90
51035;DHT22;37062;52.546;13.230;2023-12-07T05:36:47;5.50;99.90
51035;DHT22;37062;52.546;13.230;2023-12-07T05:39:16;5.50;99.90
51035;DHT22;37062;52.546;13.230;2023-12-07T05:41:45;5.50;99.90
51035;DHT22;37062;52.546;13.230;2023-12-07T05:44:14;5.60;99.90
51035;DHT22;37062;52.546;13.230;2023-12-07T05:46:48;5.60;99.90
51035;DHT22;37062;52.546;13.230;2023-12-07T05:49:17;5.50;99.90
51035;DHT22;37062;52.546;13.230;2023-12-07T05:51:47;5.60;99.90
51035;DHT22;37062;52.546;13.230;2023-12-07T05:54:15;5.60;99.90
51035;DHT22;37062;52.546;13.230;2023-12-07T05:56:44;5.60;99.90
51035;DHT22;37062;52.546;13.230;2023-12-07T05:59:13;5.60;99.90
51035;DHT22;37062;52.546;13.230;2023-12-07T06:01:42;5.60;99.90
51035;DHT22;37062;52.546;13.230;2023-12-07T06:04:11;5.60;99.90
51035;DHT22;37062;52.546;13.230;2023-12-07T06:06:40;5.50;99.90
51035;DHT22;37062;52.546;13.230;2023-12-07T06:09:10;5.50;99.90
51035;DHT22;37062;52.546;13.230;2023-12-07T06:11:38;5.60;99.90
51035;DHT22;37062;52.546;13.230;2023-12-07T06:14:07;5.50;99.90
51035;DHT22;37062;52.546;13.230;2023-12-07T06:16:35;5.50;99.90
51035;DHT22;37062;52.546;13.230;2023-12-07T06:19:04;5.50;99.90
51035;DHT22;37062;52.546;13.230;2023-12-07T06:21:32;5.60;99.90
51035;DHT22;37062;52.546;13.230;2023-12-07T06:24:01;5.60;99.90
51035;DHT22;37062;52.546;13.230;2023-12-07T06:26:30;5.70;99.90
51035;DHT22;37062;52.546;13.230;2023-12-07T06:28:59;5.70;99.90
51035;DHT22;37062;52.546;13.230;2023-12-07T06:31:27;5.70;99.90
51035;DHT22;37062;52.546;13.230;2023-12-07T06:33:56;5.70;99.90
51035;DHT22;37062;52.546;13.230;2023-12-07T06:36:24;5.70;99.90
51035;DHT22;37062;52.546;13.230;2023-12-07T06:38:53;5.70;99.90
51035;DHT22;37062;52.546;13.230;2023-12-07T06:41:22;5.60;99.90
51035;DHT22;37062;52.546;13.230;2023-12-07T06:43:52;5.60;99.90
51035;DHT22;37062;52.546;13.230;2023-12-07T06:46:23;5.60;99.90
51035;DHT22;37062;52.546;13.230;2023-12-07T06:48:51;5.50;99.90
51035;DHT22;37062;52.546;13.230;2023-12-07T06:51:19;5.40;99.90
51035;DHT22;37062;52.546;13.230;2023-12-07T06:53:48;5.40;99.90
51035;DHT22;37062;52.546;13.230;2023-12-07T06:56:16;5.40;99.90
51035;DHT22;37062;52.546;13.230;2023-12-07T06:58:45;5.30;99.90
51035;DHT22;37062;52.546;13.230;2023-12-07T07:01:15;5.40;99.90
51035;DHT22;37062;52.546;13.230;2023-12-07T07:03:43;5.40;99.90
51035;DHT22;37062;52.546;13.230;2023-12-07T07:06:11;5.40;99.90
51035;DHT22;37062;52.546;13.230;2023-12-07T07:08:40;5.50;99.90
51035;DHT22;37062;52.546;13.230;2023-12-07T07:11:12;5.50;99.90
51035;DHT22;37062;52.546;13.230;2023-12-07T07:13:42;5.50;99.90
51035;DHT22;37062;52.546;13.230;2023-12-07T07:16:11;5.60;99.90
51035;DHT22;37062;52.546;13.230;2023-12-07T07:18:41;5.60;99.90
51035;DHT22;37062;52.546;13.230;2023-12-07T07:21:09;5.60;99.90
51035;DHT22;37062;52.546;13.230;2023-12-07T07:23:37;5.60;99.90
51035;DHT22;37062;52.546;13.230;2023-12-07T07:26:05;5.50;99.90
51035;DHT22;37062;52.546;13.230;2023-12-07T07:28:35;5.50;99.90
51035;DHT22;37062;52.546;13.230;2023-12-07T07:31:03;5.50;99.90
51035;DHT22;37062;52.546;13.230;2023-12-07T07:33:32;5.50;99.90
51035;DHT22;37062;52.546;13.230;2023-12-07T07:36:01;5.50;99.90
51035;DHT22;37062;52.546;13.230;2023-12-07T07:38:30;5.50;99.90
51035;DHT22;37062;52.546;13.230;2023-12-07T07:40:58;5.50;99.90
51035;DHT22;37062;52.546;13.230;2023-12-07T07:43:26;5.60;99.90
51035;DHT22;37062;52.546;13.230;2023-12-07T07:45:55;5.60;99.90
51035;DHT22;37062;52.546;13.230;2023-12-07T07:48:23;5.60;99.90
51035;DHT22;37062;52.546;13.230;2023-12-07T07:50:53;5.60;99.90
51035;DHT22;37062;52.546;13.230;2023-12-07T07:53:22;5.60;99.90
51035;DHT22;37062;52.546;13.230;2023-12-07T07:55:51;5.50;99.90
51035;DHT22;37062;52.546;13.230;2023-12-07T07:58:19;5.20;99.90
51035;DHT22;37062;52.546;13.230;2023-12-07T08:00:48;5.00;99.90
51035;DHT22;37062;52.546;13.230;2023-12-07T08:03:16;4.90;99.90
51035;DHT22;37062;52.546;13.230;2023-12-07T08:05:45;5.00;99.90
51035;DHT22;37062;52.546;13.230;2023-12-07T08:08:13;5.20;99.90
51035;DHT22;37062;52.546;13.230;2023-12-07T08:10:43;5.30;99.90
51035;DHT22;37062;52.546;13.230;2023-12-07T08:13:22;5.50;99.90
51035;DHT22;37062;52.546;13.230;2023-12-07T08:15:53;5.50;99.90
51035;DHT22;37062;52.546;13.230;2023-12-07T08:18:24;5.50;99.90
51035;DHT22;37062;52.546;13.230;2023-12-07T08:20:54;5.50;99.90
51035;DHT22;37062;52.546;13.230;2023-12-07T08:23:22;5.60;99.90
51035;DHT22;37062;52.546;13.230;2023-12-07T08:25:52;5.60;99.90
51035;DHT22;37062;52.546;13.230;2023-12-07T08:28:20;5.60;99.90
51035;DHT22;37062;52.546;13.230;2023-12-07T08:30:48;5.60;99.90
51035;DHT22;37062;52.546;13.230;2023-12-07T08:33:17;5.60;99.90
51035;DHT22;37062;52.546;13.230;2023-12-07T08:35:46;5.60;99.90
51035;DHT22;37062;52.546;13.230;2023-12-07T08:38:16;5.60;99.90
51035;DHT22;37062;52.546;13.230;2023-12-07T08:40:44;5.60;99.90
51035;DHT22;37062;52.546;13.230;2023-12-07T08:43:14;5.70;99.90
51035;DHT22;37062;52.546;13.230;2023-12-07T08:45:42;5.70;99.90
51035;DHT22;37062;52.546;13.230;2023-12-07T08:48:10;5.70;99.90
51035;DHT22;37062;52.546;13.230;2023-12-07T08:50:39;5.70;99.90
51035;DHT22;37062;52.546;13.230;2023-12-07T08:53:07;5.80;99.90
51035;DHT22;37062;52.546;13.230;2023-12-07T08:55:36;5.80;99.90
51035;DHT22;37062;52.546;13.230;2023-12-07T08:58:04;5.90;99.90
51035;DHT22;37062;52.546;13.230;2023-12-07T09:00:34;5.90;99.90
51035;DHT22;37062;52.546;13.230;2023-12-07T09:03:03;5.90;99.90
51035;DHT22;37062;52.546;13.230;2023-12-07T09:05:31;5.90;99.90
51035;DHT22;37062;52.546;13.230;2023-12-07T09:07:59;5.90;99.90
51035;DHT22;37062;52.546;13.230;2023-12-07T09:10:28;5.90;99.90
51035;DHT22;37062;52.546;13.230;2023-12-07T09:12:56;5.90;99.90
51035;DHT22;37062;52.546;13.230;2023-12-07T09:15:24;5.90;99.90
51035;DHT22;37062;52.546;13.230;2023-12-07T09:17:54;5.90;99.90
51035;DHT22;37062;52.546;13.230;2023-12-07T09:20:23;5.90;99.90
51035;DHT22;37062;52.546;13.230;2023-12-07T09:22:51;5.90;99.90
51035;DHT22;37062;52.546;13.230;2023-12-07T09:25:21;6.00;99.90
51035;DHT22;37062;52.546;13.230;2023-12-07T09:27:50;6.00;99.90
51035;DHT22;37062;52.546;13.230;2023-12-07T09:30:18;6.00;99.90
51035;DHT22;37062;52.546;13.230;2023-12-07T09:32:46;6.00;99.90
51035;DHT22;37062;52.546;13.230;2023-12-07T09:35:16;6.10;99.90
51035;DHT22;37062;52.546;13.230;2023-12-07T09:37:48;6.10;99.90
51035;DHT22;37062;52.546;13.230;2023-12-07T09:40:17;6.10;99.90
51035;DHT22;37062;52.546;13.230;2023-12-07T09:42:48;6.10;99.90
51035;DHT22;37062;52.546;13.230;2023-12-07T09:45:17;6.10;99.90
51035;DHT22;37062;52.546;13.230;2023-12-07T09:47:49;6.10;99.90
51035;DHT22;37062;52.546;13.230;2023-12-07T09:50:20;6.10;99.90
51035;DHT22;37062;52.546;13.230;2023-12-07T09:52:50;6.10;99.90
51035;DHT22;37062;52.546;13.230;2023-12-07T09:55:33;6.10;99.90
51035;DHT22;37062;52.546;13.230;2023-12-07T09:58:03;6.10;99.90
51035;DHT22;37062;52.546;13.230;2023-12-07T10:00:34;6.10;99.90
51035;DHT22;37062;52.546;13.230;2023-12-07T10:03:03;6.10;99.90
51035;DHT22;37062;52.546;13.230;2023-12-07T10:05:53;6.10;99.90
51035;DHT22;37062;52.546;13.230;2023-12-07T10:08:29;6.20;99.90
51035;DHT22;37062;52.546;13.230;2023-12-07T10:11:06;6.20;99.90
51035;DHT22;37062;52.546;13.230;2023-12-07T10:13:36;6.20;99.90
51035;DHT22;37062;52.546;13.230;2023-12-07T10:16:06;6.20;99.90
51035;DHT22;37062;52.546;13.230;2023-12-07T10:18:36;6.20;99.90
51035;DHT22;37062;52.546;13.230;2023-12-07T10:21:10;6.30;99.90
51035;DHT22;37062;52.546;13.230;2023-12-07T10:23:39;6.20;99.90
51035;DHT22;37062;52.546;13.230;2023-12-07T10:26:11;6.30;99.90
51035;DHT22;37062;52.546;13.230;2023-12-07T10:28:39;6.30;99.90
51035;DHT22;37062;52.546;13.230;2023-12-07T10:31:08;6.30;99.90
51035;DHT22;37062;52.546;13.230;2023-12-07T10:33:37;6.30;99.90
51035;DHT22;37062;52.546;13.230;2023-12-07T10:36:06;6.30;99.90
51035;DHT22;37062;52.546;13.230;2023-12-07T10:38:36;6.30;99.90
51035;DHT22;37062;52.546;13.230;2023-12-07T10:41:09;6.40;99.90
51035;DHT22;37062;52.546;13.230;2023-12-07T10:43:42;6.40;99.90
51035;DHT22;37062;52.546;13.230;2023-12-07T10:46:14;6.40;99.90
51035;DHT22;37062;52.546;13.230;2023-12-07T10:48:44;6.40;99.90
51035;DHT22;37062;52.546;13.230;2023-12-07T10:51:19;6.40;99.90
51035;DHT22;37062;52.546;13.230;2023-12-07T10:53:51;6.50;99.90
51035;DHT22;37062;52.546;13.230;2023-12-07T10:56:29;6.50;99.90
51035;DHT22;37062;52.546;13.230;2023-12-07T10:59:02;6.50;99.90
51035;DHT22;37062;52.546;13.230;2023-12-07T11:01:31;6.50;99.90
51035;DHT22;37062;52.546;13.230;2023-12-07T11:04:01;6.50;99.90
51035;DHT22;37062;52.546;13.230;2023-12-07T11:06:30;6.40;99.90
51035;DHT22;37062;52.546;13.230;2023-12-07T11:09:02;6.40;99.90
51035;DHT22;37062;52.546;13.230;2023-12-07T11:11:41;6.40;99.90
51035;DHT22;37062;52.546;13.230;2023-12-07T11:14:12;6.40;99.90
51035;DHT22;37062;52.546;13.230;2023-12-07T11:16:42;6.40;99.90
51035;DHT22;37062;52.546;13.230;2023-12-07T11:19:44;6.40;99.90
51035;DHT22;37062;52.546;13.230;2023-12-07T11:22:13;6.40;99.90
51035;DHT22;37062;52.546;13.230;2023-12-07T11:24:57;6.30;99.90
51035;DHT22;37062;52.546;13.230;2023-12-07T11:27:32;6.30;99.90
51035;DHT22;37062;52.546;13.230;2023-12-07T11:30:00;6.30;99.90
51035;DHT22;37062;52.546;13.230;2023-12-07T11:32:30;6.40;99.90
51035;DHT22;37062;52.546;13.230;2023-12-07T11:35:02;6.40;99.90
51035;DHT22;37062;52.546;13.230;2023-12-07T11:38:00;6.40;99.90
51035;DHT22;37062;52.546;13.230;2023-12-07T11:40:31;6.40;99.90
51035;DHT22;37062;52.546;13.230;2023-12-07T11:43:00;6.40;99.90
51035;DHT22;37062;52.546;13.230;2023-12-07T11:45:39;6.40;99.90
51035;DHT22;37062;52.546;13.230;2023-12-07T11:48:09;6.40;99.90
51035;DHT22;37062;52.546;13.230;2023-12-07T11:50:57;6.40;99.90
51035;DHT22;37062;52.546;13.230;2023-12-07T11:53:27;6.40;99.90
51035;DHT22;37062;52.546;13.230;2023-12-07T11:55:59;6.30;99.90
51035;DHT22;37062;52.546;13.230;2023-12-07T11:58:29;6.30;99.90
51035;DHT22;37062;52.546;13.230;2023-12-07T12:01:03;6.40;99.90
51035;DHT22;37062;52.546;13.230;2023-12-07T12:03:32;6.30;99.90
51035;DHT22;37062;52.546;13.230;2023-12-07T12:06:03;6.30;99.90
51035;DHT22;37062;52.546;13.230;2023-12-07T12:08:32;6.30;99.90
51035;DHT22;37062;52.546;13.230;2023-12-07T12:11:01;6.30;99.90
51035;DHT22;37062;52.546;13.230;2023-12-07T12:13:33;6.30;99.90
51035;DHT22;37062;52.546;13.230;2023-12-07T12:16:03;6.40;99.90
51035;DHT22;37062;52.546;13.230;2023-12-07T12:18:33;6.50;99.90
51035;DHT22;37062;52.546;13.230;2023-12-07T12:21:03;6.50;99.90
51035;DHT22;37062;52.546;13.230;2023-12-07T12:23:31;6.50;99.90
51035;DHT22;37062;52.546;13.230;2023-12-07T12:26:01;6.60;99.90
51035;DHT22;37062;52.546;13.230;2023-12-07T12:28:30;6.60;99.90
51035;DHT22;37062;52.546;13.230;2023-12-07T12:30:59;6.60;99.90
51035;DHT22;37062;52.546;13.230;2023-12-07T12:33:28;6.60;99.90
51035;DHT22;37062;52.546;13.230;2023-12-07T12:36:02;6.60;99.90
51035;DHT22;37062;52.546;13.230;2023-12-07T12:38:31;6.60;99.90
51035;DHT22;37062;52.546;13.230;2023-12-07T12:41:10;6.60;99.90
51035;DHT22;37062;52.546;13.230;2023-12-07T12:43:40;6.60;99.90
51035;DHT22;37062;52.546;13.230;2023-12-07T12:46:09;6.60;99.90
51035;DHT22;37062;52.546;13.230;2023-12-07T12:48:53;6.60;99.90
51035;DHT22;37062;52.546;13.230;2023-12-07T12:51:24;6.60;99.90
51035;DHT22;37062;52.546;13.230;2023-12-07T12:53:53;6.60;99.90
51035;DHT22;37062;52.546;13.230;2023-12-07T12:56:23;6.60;99.90
51035;DHT22;37062;52.546;13.230;2023-12-07T12:58:53;6.60;99.90
51035;DHT22;37062;52.546;13.230;2023-12-07T13:01:29;6.60;99.90
51035;DHT22;37062;52.546;13.230;2023-12-07T13:03:58;6.70;99.90
51035;DHT22;37062;52.546;13.230;2023-12-07T13:06:27;6.70;99.90
51035;DHT22;37062;52.546;13.230;2023-12-07T13:08:56;6.70;99.90
51035;DHT22;37062;52.546;13.230;2023-12-07T13:11:26;6.60;99.90
51035;DHT22;37062;52.546;13.230;2023-12-07T13:13:54;6.60;99.90
51035;DHT22;37062;52.546;13.230;2023-12-07T13:16:23;6.60;99.90
51035;DHT22;37062;52.546;13.230;2023-12-07T13:18:52;6.60;99.90
51035;DHT22;37062;52.546;13.230;2023-12-07T13:21:21;6.50;99.90
51035;DHT22;37062;52.546;13.230;2023-12-07T13:23:49;6.50;99.90
51035;DHT22;37062;52.546;13.230;2023-12-07T13:26:19;6.50;99.90
51035;DHT22;37062;52.546;13.230;2023-12-07T13:28:49;6.50;99.90
51035;DHT22;37062;52.546;13.230;2023-12-07T13:31:18;6.50;99.90
51035;DHT22;37062;52.546;13.230;2023-12-07T13:33:47;6.50;99.90
51035;DHT22;37062;52.546;13.230;2023-12-07T13:36:23;6.40;99.90
51035;DHT22;37062;52.546;13.230;2023-12-07T13:38:55;6.40;99.90
51035;DHT22;37062;52.546;13.230;2023-12-07T13:41:23;6.40;99.90
51035;DHT22;37062;52.546;13.230;2023-12-07T13:43:52;6.40;99.90
51035;DHT22;37062;52.546;13.230;2023-12-07T13:46:21;6.30;99.90
51035;DHT22;37062;52.546;13.230;2023-12-07T13:48:50;6.40;99.90
51035;DHT22;37062;52.546;13.230;2023-12-07T13:51:19;6.40;99.90
51035;DHT22;37062;52.546;13.230;2023-12-07T13:53:47;6.40;99.90
51035;DHT22;37062;52.546;13.230;2023-12-07T13:56:26;6.40;99.90
51035;DHT22;37062;52.546;13.230;2023-12-07T13:58:55;6.40;99.90
51035;DHT22;37062;52.546;13.230;2023-12-07T14:01:24;6.40;99.90
51035;DHT22;37062;52.546;13.230;2023-12-07T14:03:53;6.40;99.90
51035;DHT22;37062;52.546;13.230;2023-12-07T14:06:22;6.40;99.90
51035;DHT22;37062;52.546;13.230;2023-12-07T14:08:55;6.40;99.90
51035;DHT22;37062;52.546;13.230;2023-12-07T14:11:23;6.50;99.90
51035;DHT22;37062;52.546;13.230;2023-12-07T14:13:52;6.60;99.90
51035;DHT22;37062;52.546;13.230;2023-12-07T14:16:23;6.60;99.90
51035;DHT22;37062;52.546;13.230;2023-12-07T14:19:11;6.60;99.90
51035;DHT22;37062;52.546;13.230;2023-12-07T14:21:46;6.60;99.90
51035;DHT22;37062;52.546;13.230;2023-12-07T14:24:23;6.60;99.90
51035;DHT22;37062;52.546;13.230;2023-12-07T14:26:52;6.50;99.90
51035;DHT22;37062;52.546;13.230;2023-12-07T14:29:21;6.50;99.90
51035;DHT22;37062;52.546;13.230;2023-12-07T14:31:55;6.50;99.90
51035;DHT22;37062;52.546;13.230;2023-12-07T14:34:23;6.50;99.90
51035;DHT22;37062;52.546;13.230;2023-12-07T14:37:02;6.40;99.90
51035;DHT22;37062;52.546;13.230;2023-12-07T14:39:34;6.40;99.90
51035;DHT22;37062;52.546;13.230;2023-12-07T14:42:03;6.50;99.90
51035;DHT22;37062;52.546;13.230;2023-12-07T14:44:33;6.50;99.90
51035;DHT22;37062;52.546;13.230;2023-12-07T14:47:03;6.50;99.90
51035;DHT22;37062;52.546;13.230;2023-12-07T14:49:31;6.50;99.90
51035;DHT22;37062;52.546;13.230;2023-12-07T14:52:00;6.50;99.90
51035;DHT22;37062;52.546;13.230;2023-12-07T14:54:28;6.50;99.90
51035;DHT22;37062;52.546;13.230;2023-12-07T14:56:58;6.50;99.90
51035;DHT22;37062;52.546;13.230;2023-12-07T14:59:28;6.50;99.90
51035;DHT22;37062;52.546;13.230;2023-12-07T15:01:57;6.40;99.90
51035;DHT22;37062;52.546;13.230;2023-12-07T15:04:27;6.40;99.90
51035;DHT22;37062;52.546;13.230;2023-12-07T15:07:01;6.50;99.90
51035;DHT22;37062;52.546;13.230;2023-12-07T15:09:30;6.40;99.90
51035;DHT22;37062;52.546;13.230;2023-12-07T15:11:59;6.50;99.90
51035;DHT22;37062;52.546;13.230;2023-12-07T15:14:27;6.50;99.90
51035;DHT22;37062;52.546;13.230;2023-12-07T15:17:04;6.50;99.90
51035;DHT22;37062;52.546;13.230;2023-12-07T15:19:35;6.50;99.90
51035;DHT22;37062;52.546;13.230;2023-12-07T15:22:08;6.50;99.90
51035;DHT22;37062;52.546;13.230;2023-12-07T15:24:37;6.40;99.90
51035;DHT22;37062;52.546;13.230;2023-12-07T15:27:07;6.40;99.90
51035;DHT22;37062;52.546;13.230;2023-12-07T15:29:36;6.30;99.90
51035;DHT22;37062;52.546;13.230;2023-12-07T15:32:07;6.20;99.90
51035;DHT22;37062;52.546;13.230;2023-12-07T15:34:37;6.20;99.90
51035;DHT22;37062;52.546;13.230;2023-12-07T15:37:09;6.10;99.90
51035;DHT22;37062;52.546;13.230;2023-12-07T15:39:41;6.10;99.90
51035;DHT22;37062;52.546;13.230;2023-12-07T15:42:10;6.10;99.90
51035;DHT22;37062;52.546;13.230;2023-12-07T15:44:39;6.10;99.90
51035;DHT22;37062;52.546;13.230;2023-12-07T15:47:07;6.20;99.90